Salish Orca — CFBS — position and weather

sailwx.info

Track history (hours):
 
Tides and Currents Weather Stations Pressure Air Temp Water Temp Dewpoint Dewpoint Depression Visibility Wind Speed Wind Dir Waves Ship Positions

Salish Orca

Last reported at 2018-Jun-18 21:00 UTC. Time now 2018-Jun-18 21:17 UTC.
Position N 49°44' W 124°55'.

Length 107 m; draft 4.6 m.

Type: Passenger vessel. MMSI: 316030627.

Date/timePositionNaut miles runAvg speedWind from/ knotsBaromVisibWave heightAir tempDewpointWater temp
2018-Jun-18 21:00N 49°44' W 124°55'0 0.0
2018-Jun-18 20:30N 49°44' W 124°55'1 1.6
2018-Jun-18 20:00N 49°45' W 124°54'815.9
2018-Jun-18 19:30N 49°48' W 124°43'714.9
2018-Jun-18 19:00N 49°50' W 124°32'0 0.0
2018-Jun-18 18:31N 49°50' W 124°32'4 7.1
2018-Jun-18 18:00N 49°49' W 124°37'816.6
2018-Jun-18 17:30N 49°46' W 124°49'4 8.7
2018-Jun-18 17:00N 49°44' W 124°55'0 0.0
2018-Jun-18 16:30N 49°44' W 124°55'4 7.4
2018-Jun-18 16:00N 49°46' W 124°50'713.9
2018-Jun-18 15:30N 49°48' W 124°40'611.1
2018-Jun-18 15:00N 49°50' W 124°32'0 0.0
2018-Jun-18 14:30N 49°50' W 124°32'714.0
2018-Jun-18 14:00N 49°48' W 124°42'815.7
2018-Jun-18 13:30N 49°45' W 124°53'1 2.8
2018-Jun-18 13:00N 49°44' W 124°55'0 0.0
2018-Jun-18 12:29N 49°44' W 124°55'0 0.0
2018-Jun-18 11:53N 49°44' W 124°55'0 0.0
2018-Jun-18 11:23N 49°44' W 124°55'0 0.0
2018-Jun-18 10:53N 49°44' W 124°55'0 0.0
2018-Jun-18 10:29N 49°44' W 124°55'0 0.0
2018-Jun-18 09:59N 49°44' W 124°55'0 0.0
2018-Jun-18 09:29N 49°44' W 124°55'0 0.0
2018-Jun-18 08:59N 49°44' W 124°55'0 0.0
2018-Jun-18 08:29N 49°44' W 124°55'0 0.0
2018-Jun-18 07:59N 49°44' W 124°55'0 0.0
2018-Jun-18 07:29N 49°44' W 124°55'0 0.0
2018-Jun-18 06:59N 49°44' W 124°55'0 0.0
2018-Jun-18 06:29N 49°44' W 124°55'0 0.0
2018-Jun-18 05:59N 49°44' W 124°55'0 0.0
2018-Jun-18 05:29N 49°44' W 124°55'1 1.5
2018-Jun-18 05:00N 49°45' W 124°54'714.5
2018-Jun-18 04:30N 49°47' W 124°44'714.3
2018-Jun-18 04:00N 49°50' W 124°33'1 2.2
2018-Jun-18 03:30N 49°50' W 124°32'510.5
2018-Jun-18 03:01N 49°48' W 124°39'714.7
2018-Jun-18 02:30N 49°46' W 124°50'4 7.1
2018-Jun-18 02:00N 49°44' W 124°55'1 2.2
2018-Jun-18 01:30N 49°45' W 124°54'714.5
2018-Jun-18 01:00N 49°47' W 124°43'714.1
2018-Jun-18 00:30N 49°50' W 124°33'1 1.6
2018-Jun-18 00:00N 49°50' W 124°32'3 5.3
2018-Jun-17 23:31N 49°49' W 124°36'714.7
2018-Jun-17 23:00N 49°47' W 124°46'611.6
2018-Jun-17 22:29N 49°44' W 124°55'0 0.0
2018-Jun-17 21:59N 49°44' W 124°55'0 0.0
2018-Jun-17 21:29N 49°44' W 124°55'0 0.0
2018-Jun-17 20:56N 49°44' W 124°55'0 0.0
2018-Jun-17 20:29N 49°44' W 124°55'0 0.5
2018-Jun-17 20:00N 49°45' W 124°55'815.3
2018-Jun-17 19:30N 49°48' W 124°44'815.3
2018-Jun-17 19:00N 49°50' W 124°33'1 1.5
2018-Jun-17 18:30N 49°50' W 124°32'2 4.6
2018-Jun-17 18:00N 49°49' W 124°35'612.6
2018-Jun-17 17:30N 49°47' W 124°44'712.9
2018-Jun-17 17:00N 49°45' W 124°54'1 2.3
2018-Jun-17 16:30N 49°44' W 124°55'510.1
2018-Jun-17 16:00N 49°46' W 124°48'612.7
2018-Jun-17 15:31N 49°48' W 124°39'5 9.6
2018-Jun-17 15:00N 49°50' W 124°32'0 0.0
2018-Jun-17 14:30N 49°50' W 124°32'611.8
2018-Jun-17 14:00N 49°48' W 124°40'713.8
2018-Jun-17 13:30N 49°46' W 124°50'3 7.1
2018-Jun-17 13:00N 49°44' W 124°55'0 0.0
2018-Jun-17 12:27N 49°44' W 124°55'0 0.0
2018-Jun-17 12:00N 49°44' W 124°55'0 0.0
2018-Jun-17 11:27N 49°44' W 124°55'0 0.0
2018-Jun-17 10:57N 49°44' W 124°55'0 0.0
2018-Jun-17 10:27N 49°44' W 124°55'0 0.0
2018-Jun-17 10:00N 49°44' W 124°55'0 0.0
2018-Jun-17 09:27N 49°44' W 124°55'0 0.0
2018-Jun-17 09:00N 49°44' W 124°55'0 0.0
2018-Jun-17 08:30N 49°44' W 124°55'0 0.0
2018-Jun-17 07:57N 49°44' W 124°55'0 0.0
2018-Jun-17 07:30N 49°44' W 124°55'0 0.0
2018-Jun-17 07:00N 49°44' W 124°55'0 0.0
2018-Jun-17 06:27N 49°44' W 124°55'0 0.0
2018-Jun-17 06:00N 49°44' W 124°55'0 0.0
2018-Jun-17 05:30N 49°44' W 124°55'0 0.1
2018-Jun-17 05:00N 49°44' W 124°55'712.9
2018-Jun-17 04:30N 49°47' W 124°46'713.5
2018-Jun-17 04:00N 49°49' W 124°36'3 6.0
2018-Jun-17 03:30N 49°50' W 124°32'5 9.9
2018-Jun-17 03:00N 49°48' W 124°39'714.8
2018-Jun-17 02:30N 49°46' W 124°50'4 7.7
2018-Jun-17 02:00N 49°44' W 124°55'0 0.0
2018-Jun-17 01:30N 49°44' W 124°55'612.5
2018-Jun-17 01:01N 49°46' W 124°46'713.8
2018-Jun-17 00:30N 49°49' W 124°36'3 6.0
2018-Jun-17 00:00N 49°50' W 124°32'3 5.5
2018-Jun-16 23:30N 49°49' W 124°36'713.5
2018-Jun-16 23:00N 49°46' W 124°45'713.4
2018-Jun-16 22:30N 49°44' W 124°55'0 0.2
2018-Jun-16 22:00N 49°44' W 124°55'0 0.0
2018-Jun-16 21:30N 49°44' W 124°55'0 0.0
2018-Jun-16 21:00N 49°44' W 124°55'0 0.0
2018-Jun-16 20:30N 49°44' W 124°55'2 3.8
2018-Jun-16 20:00N 49°45' W 124°53'714.6
2018-Jun-16 19:30N 49°48' W 124°42'713.8
2018-Jun-16 19:00N 49°50' W 124°32'0 0.2
2018-Jun-16 18:30N 49°50' W 124°32'4 7.5
2018-Jun-16 18:00N 49°49' W 124°37'714.3
2018-Jun-16 17:31N 49°46' W 124°48'510.3
2018-Jun-16 17:00N 49°44' W 124°55'0 0.0
2018-Jun-16 16:30N 49°44' W 124°55'4 8.4
2018-Jun-16 16:00N 49°46' W 124°49'713.4
2018-Jun-16 15:30N 49°48' W 124°40'510.5
2018-Jun-16 15:00N 49°50' W 124°32'0 0.0
2018-Jun-16 14:30N 49°50' W 124°32'611.2
2018-Jun-16 14:00N 49°48' W 124°40'714.6
2018-Jun-16 13:30N 49°46' W 124°51'3 6.8
2018-Jun-16 13:01N 49°44' W 124°55'0 0.0
2018-Jun-16 12:28N 49°44' W 124°55'0 0.0
2018-Jun-16 11:58N 49°44' W 124°55'0 0.0
2018-Jun-16 11:25N 49°44' W 124°55'0 0.0
2018-Jun-16 10:55N 49°44' W 124°55'0 0.0
2018-Jun-16 10:25N 49°44' W 124°55'0 0.0
2018-Jun-16 09:49N 49°44' W 124°55'0 0.0
2018-Jun-16 09:25N 49°44' W 124°55'0 0.0
2018-Jun-16 08:55N 49°44' W 124°55'0 0.0
2018-Jun-16 08:25N 49°44' W 124°55'0 0.0
2018-Jun-16 07:49N 49°44' W 124°55'0 0.0
2018-Jun-16 07:25N 49°44' W 124°55'0 0.0
2018-Jun-16 06:55N 49°44' W 124°55'0 0.0
2018-Jun-16 06:25N 49°44' W 124°55'0 0.0
2018-Jun-16 05:57N 49°44' W 124°55'4 9.1
2018-Jun-16 05:30N 49°46' W 124°50'815.8
2018-Jun-16 05:00N 49°49' W 124°38'4 8.6
2018-Jun-16 04:30N 49°50' W 124°32'4 8.4
2018-Jun-16 04:00N 49°49' W 124°38'714.5
2018-Jun-16 03:30N 49°46' W 124°48'5 9.2
2018-Jun-16 02:59N 49°44' W 124°55'0 0.3
2018-Jun-16 02:30N 49°44' W 124°55'2 4.0
2018-Jun-16 02:00N 49°44' W 124°52'1 2.8
2018-Jun-16 01:30N 49°45' W 124°54'612.8
2018-Jun-16 01:00N 49°47' W 124°44'714.5
2018-Jun-16 00:30N 49°49' W 124°34'2 3.1
2018-Jun-16 00:00N 49°50' W 124°32'3 5.1
2018-Jun-15 23:31N 49°49' W 124°35'714.2
2018-Jun-15 23:00N 49°47' W 124°46'713.1
2018-Jun-15 22:30N 49°44' W 124°55'0 0.0
2018-Jun-15 21:58N 49°44' W 124°55'0 0.0
2018-Jun-15 21:28N 49°44' W 124°55'0 0.0
2018-Jun-15 20:58N 49°44' W 124°55'0 0.0
2018-Jun-15 20:28N 49°44' W 124°55'2 3.8
2018-Jun-15 20:00N 49°45' W 124°53'816.7
2018-Jun-15 19:30N 49°48' W 124°41'612.3
2018-Jun-15 19:00N 49°50' W 124°32'0 0.0
2018-Jun-15 18:30N 49°50' W 124°32'2 4.2
2018-Jun-15 18:00N 49°49' W 124°35'713.7
2018-Jun-15 17:30N 49°47' W 124°45'713.5
2018-Jun-15 17:00N 49°45' W 124°55'1 1.1
2018-Jun-15 16:30N 49°44' W 124°55'2 3.5
2018-Jun-15 16:00N 49°45' W 124°53'816.4
2018-Jun-15 15:30N 49°48' W 124°41'612.5
2018-Jun-15 15:00N 49°50' W 124°32'0 0.0
2018-Jun-15 14:30N 49°50' W 124°32'612.1
2018-Jun-15 14:00N 49°48' W 124°41'713.5
2018-Jun-15 13:30N 49°45' W 124°51'3 6.7
2018-Jun-15 13:01N 49°44' W 124°55'0 0.0
2018-Jun-15 12:26N 49°44' W 124°55'0 0.0
2018-Jun-15 11:59N 49°44' W 124°55'0 0.0
2018-Jun-15 11:26N 49°44' W 124°55'0 0.0
2018-Jun-15 10:59N 49°44' W 124°55'0 0.0
2018-Jun-15 10:29N 49°44' W 124°55'0 0.0
2018-Jun-15 09:59N 49°44' W 124°55'0 0.0
2018-Jun-15 09:29N 49°44' W 124°55'0 0.0
2018-Jun-15 08:56N 49°44' W 124°55'0 0.0
2018-Jun-15 08:20N 49°44' W 124°55'0 0.0
2018-Jun-15 07:59N 49°44' W 124°55'0 0.0
2018-Jun-15 07:26N 49°44' W 124°55'0 0.0
2018-Jun-15 06:56N 49°44' W 124°55'0 0.0
2018-Jun-15 06:20N 49°44' W 124°55'0 0.0
2018-Jun-15 05:56N 49°44' W 124°55'0 0.0
2018-Jun-15 05:26N 49°44' W 124°55'0 0.0
2018-Jun-15 04:59N 49°44' W 124°55'511.2
2018-Jun-15 04:30N 49°47' W 124°48'714.7
2018-Jun-15 04:00N 49°49' W 124°37'4 7.2
2018-Jun-15 03:31N 49°50' W 124°32'5 9.9
2018-Jun-15 03:00N 49°49' W 124°39'713.5
2018-Jun-15 02:31N 49°46' W 124°49'5 9.0
2018-Jun-15 02:01N 49°44' W 124°55'0 0.6
2018-Jun-15 01:31N 49°45' W 124°55'714.5
2018-Jun-15 01:00N 49°47' W 124°45'715.0
2018-Jun-15 00:30N 49°50' W 124°34'1 2.4
2018-Jun-15 00:01N 49°50' W 124°32'5 9.1
2018-Jun-14 23:30N 49°48' W 124°39'714.3
2018-Jun-14 23:00N 49°45' W 124°49'5 9.1
2018-Jun-14 22:30N 49°44' W 124°55'0 0.0
2018-Jun-14 22:00N 49°44' W 124°55'0 0.0
2018-Jun-14 21:26N 49°44' W 124°55'0 0.0
2018-Jun-14 20:59N 49°44' W 124°55'0 0.0
2018-Jun-14 20:29N 49°44' W 124°55'1 2.8
2018-Jun-14 19:59N 49°45' W 124°53'714.3
2018-Jun-14 19:30N 49°47' W 124°43'714.0
2018-Jun-14 19:01N 49°49' W 124°33'1 2.2
2018-Jun-14 18:30N 49°50' W 124°32'3 5.4
2018-Jun-14 18:00N 49°49' W 124°36'714.5
2018-Jun-14 17:30N 49°47' W 124°46'612.6
2018-Jun-14 17:00N 49°44' W 124°55'0 0.0
2018-Jun-14 16:30N 49°44' W 124°55'5 9.1
2018-Jun-14 16:00N 49°46' W 124°49'816.2
2018-Jun-14 15:30N 49°49' W 124°37'3 7.0
2018-Jun-14 15:00N 49°50' W 124°32'1 2.4
2018-Jun-14 14:30N 49°50' W 124°34'612.9
2018-Jun-14 14:01N 49°47' W 124°43'612.9
2018-Jun-14 13:31N 49°45' W 124°52'2 4.2
2018-Jun-14 12:59N 49°44' W 124°55'0 0.0
2018-Jun-14 12:26N 49°44' W 124°55'0 0.0
2018-Jun-14 11:59N 49°44' W 124°55'0 0.0
2018-Jun-14 11:26N 49°44' W 124°55'0 0.0
2018-Jun-14 10:59N 49°44' W 124°55'0 0.0
2018-Jun-14 10:29N 49°44' W 124°55'0 0.0
2018-Jun-14 09:59N 49°44' W 124°55'0 0.0
2018-Jun-14 09:29N 49°44' W 124°55'0 0.0
2018-Jun-14 08:59N 49°44' W 124°55'0 0.0
2018-Jun-14 08:29N 49°44' W 124°55'0 0.0
2018-Jun-14 07:59N 49°44' W 124°55'0 0.0
2018-Jun-14 07:23N 49°44' W 124°55'0 0.0
2018-Jun-14 06:59N 49°44' W 124°55'0 0.0
2018-Jun-14 06:29N 49°44' W 124°55'0 0.0
2018-Jun-14 05:59N 49°44' W 124°55'0 0.0
2018-Jun-14 05:29N 49°44' W 124°55'0 0.0
2018-Jun-14 05:00N 49°44' W 124°55'510.4
2018-Jun-14 04:31N 49°46' W 124°48'714.7
2018-Jun-14 04:00N 49°49' W 124°37'4 7.3
2018-Jun-14 03:30N 49°50' W 124°32'4 9.0
2018-Jun-14 03:00N 49°49' W 124°38'713.7
2018-Jun-14 02:30N 49°46' W 124°48'5 9.7
2018-Jun-14 02:00N 49°44' W 124°55'0 0.0
2018-Jun-14 01:30N 49°44' W 124°55'612.0
2018-Jun-14 01:01N 49°47' W 124°47'714.6
2018-Jun-14 00:30N 49°49' W 124°36'3 5.9
2018-Jun-14 00:00N 49°50' W 124°32'1 2.7
2018-Jun-13 23:30N 49°49' W 124°34'713.9
2018-Jun-13 23:00N 49°47' W 124°44'714.0
2018-Jun-13 22:31N 49°45' W 124°54'1 1.9
2018-Jun-13 22:01N 49°44' W 124°55'0 0.0
2018-Jun-13 21:28N 49°44' W 124°55'0 0.0
2018-Jun-13 20:58N 49°44' W 124°55'0 0.0
2018-Jun-13 20:28N 49°44' W 124°55'2 3.8
2018-Jun-13 20:00N 49°45' W 124°53'713.8
2018-Jun-13 19:30N 49°47' W 124°43'713.4
2018-Jun-13 19:00N 49°50' W 124°33'1 1.8
2018-Jun-13 18:30N 49°50' W 124°32'2 4.5
2018-Jun-13 18:00N 49°49' W 124°35'613.3
2018-Jun-13 17:30N 49°47' W 124°45'713.7
2018-Jun-13 17:00N 49°45' W 124°55'1 1.1
2018-Jun-13 16:30N 49°44' W 124°55'4 7.9
2018-Jun-13 16:00N 49°46' W 124°50'713.7
2018-Jun-13 15:30N 49°48' W 124°40'510.9
2018-Jun-13 15:01N 49°50' W 124°32'0 0.2
2018-Jun-13 14:30N 49°50' W 124°32'712.8
2018-Jun-13 14:00N 49°48' W 124°41'612.6
2018-Jun-13 13:29N 49°46' W 124°51'3 6.4
2018-Jun-13 13:00N 49°44' W 124°55'0 0.0
2018-Jun-13 12:30N 49°44' W 124°55'0 0.0
2018-Jun-13 12:00N 49°44' W 124°55'0 0.0
2018-Jun-13 11:27N 49°44' W 124°55'0 0.0
2018-Jun-13 11:00N 49°44' W 124°55'0 0.0
2018-Jun-13 10:30N 49°44' W 124°55'0 0.0
2018-Jun-13 10:00N 49°44' W 124°55'0 0.0
2018-Jun-13 09:30N 49°44' W 124°55'0 0.0
2018-Jun-13 09:00N 49°44' W 124°55'0 0.0
2018-Jun-13 08:27N 49°44' W 124°55'0 0.0
2018-Jun-13 07:57N 49°44' W 124°55'0 0.0
2018-Jun-13 07:21N 49°44' W 124°55'0 0.0
2018-Jun-13 06:57N 49°44' W 124°55'0 0.0
2018-Jun-13 06:21N 49°44' W 124°55'0 0.0
2018-Jun-13 05:57N 49°44' W 124°55'0 0.0
2018-Jun-13 05:27N 49°44' W 124°55'0 0.0
2018-Jun-13 04:59N 49°44' W 124°55'511.0
2018-Jun-13 04:30N 49°46' W 124°48'714.5
2018-Jun-13 04:00N 49°49' W 124°37'4 7.2
2018-Jun-13 03:30N 49°50' W 124°32'5 9.6
2018-Jun-13 03:00N 49°48' W 124°39'713.8
2018-Jun-13 02:30N 49°46' W 124°49'5 9.0
2018-Jun-13 02:00N 49°44' W 124°55'0 0.2
2018-Jun-13 01:30N 49°44' W 124°55'713.8
2018-Jun-13 01:00N 49°47' W 124°45'714.2
2018-Jun-13 00:30N 49°49' W 124°35'2 4.2
2018-Jun-13 00:00N 49°50' W 124°32'2 4.8
2018-Jun-12 23:31N 49°49' W 124°35'714.3
2018-Jun-12 23:00N 49°47' W 124°46'713.2
2018-Jun-12 22:31N 49°44' W 124°55'0 0.1
2018-Jun-12 21:58N 49°44' W 124°55'0 0.0
2018-Jun-12 21:30N 49°44' W 124°55'0 0.0
2018-Jun-12 21:00N 49°44' W 124°55'0 0.0
2018-Jun-12 20:30N 49°44' W 124°55'0 0.0
2018-Jun-12 20:00N 49°44' W 124°55'612.4
2018-Jun-12 19:31N 49°46' W 124°47'815.6
2018-Jun-12 19:00N 49°49' W 124°35'2 4.6
2018-Jun-12 18:30N 49°50' W 124°32'2 3.8
2018-Jun-12 18:00N 49°49' W 124°35'713.6
2018-Jun-12 17:30N 49°47' W 124°44'713.6
2018-Jun-12 17:00N 49°45' W 124°54'1 1.4
2018-Jun-12 16:30N 49°44' W 124°55'4 7.5
2018-Jun-12 16:01N 49°46' W 124°50'714.0
2018-Jun-12 15:30N 49°48' W 124°40'510.9
2018-Jun-12 15:00N 49°50' W 124°32'0 0.0
2018-Jun-12 14:30N 49°50' W 124°32'611.5
2018-Jun-12 14:00N 49°48' W 124°40'713.6
2018-Jun-12 13:30N 49°46' W 124°50'4 6.8
2018-Jun-12 12:58N 49°44' W 124°55'0 0.0
2018-Jun-12 12:28N 49°44' W 124°55'0 0.0
2018-Jun-12 11:58N 49°44' W 124°55'0 0.0
2018-Jun-12 11:28N 49°44' W 124°55'0 0.0
2018-Jun-12 10:58N 49°44' W 124°55'0 0.0
2018-Jun-12 10:28N 49°44' W 124°55'0 0.0
2018-Jun-12 09:55N 49°44' W 124°55'0 0.0
2018-Jun-12 09:28N 49°44' W 124°55'0 0.0
2018-Jun-12 08:58N 49°44' W 124°55'0 0.0
2018-Jun-12 08:28N 49°44' W 124°55'0 0.0
2018-Jun-12 07:58N 49°44' W 124°55'0 0.0
2018-Jun-12 07:28N 49°44' W 124°55'0 0.0
2018-Jun-12 06:58N 49°44' W 124°55'0 0.0
2018-Jun-12 06:28N 49°44' W 124°55'0 0.0
2018-Jun-12 05:58N 49°44' W 124°55'0 0.0
2018-Jun-12 05:28N 49°44' W 124°55'0 0.0
2018-Jun-12 05:00N 49°44' W 124°55'611.3
2018-Jun-12 04:31N 49°46' W 124°47'714.1
2018-Jun-12 04:00N 49°49' W 124°37'4 7.0
2018-Jun-12 03:30N 49°50' W 124°32'4 8.2
2018-Jun-12 03:00N 49°49' W 124°38'714.5
2018-Jun-12 02:30N 49°46' W 124°48'5 9.7
2018-Jun-12 02:01N 49°44' W 124°55'0 0.0
2018-Jun-12 01:31N 49°44' W 124°55'612.6
2018-Jun-12 01:00N 49°47' W 124°46'714.3
2018-Jun-12 00:30N 49°49' W 124°36'3 5.4
2018-Jun-12 00:01N 49°50' W 124°32'3 5.6
2018-Jun-11 23:30N 49°49' W 124°36'714.4
2018-Jun-11 23:00N 49°46' W 124°46'612.4
2018-Jun-11 22:31N 49°44' W 124°55'0 0.0
2018-Jun-11 22:01N 49°44' W 124°55'0 0.0
2018-Jun-11 21:30N 49°44' W 124°55'0 0.0
2018-Jun-11 21:00N 49°44' W 124°55'0 0.0
2018-Jun-11 20:27N 49°44' W 124°55'0 0.3
2018-Jun-11 20:00N 49°44' W 124°55'714.2
2018-Jun-11 19:30N 49°47' W 124°45'714.1
2018-Jun-11 19:01N 49°49' W 124°35'2 3.8
2018-Jun-11 18:31N 49°50' W 124°32'2 4.9
2018-Jun-11 18:01N 49°49' W 124°35'714.4
2018-Jun-11 17:30N 49°47' W 124°46'713.0
2018-Jun-11 17:00N 49°44' W 124°55'0 0.0
2018-Jun-11 16:30N 49°44' W 124°55'4 7.3
2018-Jun-11 16:00N 49°46' W 124°50'714.0
2018-Jun-11 15:31N 49°48' W 124°40'611.1
2018-Jun-11 15:01N 49°50' W 124°32'0 0.0
2018-Jun-11 14:30N 49°50' W 124°32'611.8
2018-Jun-11 14:00N 49°48' W 124°40'713.9
2018-Jun-11 13:30N 49°46' W 124°50'3 6.4
2018-Jun-11 12:59N 49°44' W 124°55'0 0.0
2018-Jun-11 12:29N 49°44' W 124°55'0 0.0
2018-Jun-11 11:59N 49°44' W 124°55'0 0.0
2018-Jun-11 11:29N 49°44' W 124°55'0 0.0
2018-Jun-11 10:59N 49°44' W 124°55'0 0.0
2018-Jun-11 10:29N 49°44' W 124°55'0 0.0
2018-Jun-11 09:56N 49°44' W 124°55'0 0.0
2018-Jun-11 09:20N 49°44' W 124°55'0 0.0
2018-Jun-11 08:59N 49°44' W 124°55'0 0.0
2018-Jun-11 08:29N 49°44' W 124°55'0 0.0
2018-Jun-11 07:59N 49°44' W 124°55'0 0.0
2018-Jun-11 07:29N 49°44' W 124°55'0 0.0
2018-Jun-11 06:59N 49°44' W 124°55'0 0.0
2018-Jun-11 06:26N 49°44' W 124°55'0 0.0
2018-Jun-11 05:59N 49°44' W 124°55'0 0.0
2018-Jun-11 05:29N 49°44' W 124°55'0 0.0
2018-Jun-11 05:01N 49°44' W 124°55'611.5
2018-Jun-11 04:30N 49°46' W 124°47'714.4
2018-Jun-11 04:00N 49°49' W 124°36'3 6.4
2018-Jun-11 03:30N 49°50' W 124°32'5 9.3
2018-Jun-11 03:00N 49°48' W 124°39'713.8
2018-Jun-11 02:30N 49°46' W 124°49'5 9.3
2018-Jun-11 02:00N 49°44' W 124°55'0 0.1
2018-Jun-11 01:30N 49°44' W 124°55'612.1
2018-Jun-11 01:01N 49°47' W 124°47'713.9
2018-Jun-11 00:30N 49°49' W 124°37'3 6.6
2018-Jun-11 00:00N 49°50' W 124°32'1 2.3
2018-Jun-10 23:30N 49°50' W 124°34'714.6
2018-Jun-10 23:00N 49°47' W 124°44'714.7
2018-Jun-10 22:30N 49°45' W 124°55'0 0.9
2018-Jun-10 22:00N 49°44' W 124°55'0 0.0
2018-Jun-10 21:30N 49°44' W 124°55'0 0.0
2018-Jun-10 20:55N 49°44' W 124°55'0 0.0
2018-Jun-10 20:25N 49°44' W 124°55'1 2.4
2018-Jun-10 20:00N 49°45' W 124°54'713.4
2018-Jun-10 19:30N 49°47' W 124°44'713.7
2018-Jun-10 18:59N 49°50' W 124°34'1 2.9
2018-Jun-10 18:30N 49°50' W 124°32'2 3.6
2018-Jun-10 18:00N 49°49' W 124°34'713.4
2018-Jun-10 17:30N 49°47' W 124°44'713.7
2018-Jun-10 16:59N 49°45' W 124°54'1 1.4
2018-Jun-10 16:30N 49°44' W 124°55'3 6.5
2018-Jun-10 16:00N 49°46' W 124°51'714.0
2018-Jun-10 15:30N 49°48' W 124°40'611.9
2018-Jun-10 15:00N 49°50' W 124°32'6 5.8
2018-Jun-10 14:00N 49°48' W 124°40'713.5
2018-Jun-10 13:30N 49°46' W 124°50'4 7.3
2018-Jun-10 13:00N 49°44' W 124°55'0 0.0
2018-Jun-10 12:30N 49°44' W 124°55'0 0.0
2018-Jun-10 11:57N 49°44' W 124°55'0 0.0
2018-Jun-10 11:30N 49°44' W 124°55'0 0.0
2018-Jun-10 10:57N 49°44' W 124°55'0 0.0
2018-Jun-10 10:27N 49°44' W 124°55'0 0.0
2018-Jun-10 09:54N 49°44' W 124°55'0 0.0
2018-Jun-10 09:30N 49°44' W 124°55'0 0.0
2018-Jun-10 09:00N 49°44' W 124°55'0 0.0
2018-Jun-10 08:30N 49°44' W 124°55'0 0.0
2018-Jun-10 08:00N 49°44' W 124°55'0 0.0
2018-Jun-10 07:30N 49°44' W 124°55'0 0.0
2018-Jun-10 07:00N 49°44' W 124°55'0 0.0
2018-Jun-10 06:30N 49°44' W 124°55'0 0.0
2018-Jun-10 06:00N 49°44' W 124°55'0 0.0
2018-Jun-10 05:30N 49°44' W 124°55'0 0.0
2018-Jun-10 05:00N 49°44' W 124°55'611.4
2018-Jun-10 04:30N 49°46' W 124°47'714.0
2018-Jun-10 04:00N 49°49' W 124°37'3 7.0
2018-Jun-10 03:30N 49°50' W 124°32'5 9.1
2018-Jun-10 03:00N 49°48' W 124°38'713.6
2018-Jun-10 02:30N 49°46' W 124°48'5 9.8
2018-Jun-10 02:01N 49°44' W 124°55'0 0.1
2018-Jun-10 01:31N 49°44' W 124°55'611.8
2018-Jun-10 01:00N 49°47' W 124°47'714.6
2018-Jun-10 00:30N 49°49' W 124°36'3 5.9
2018-Jun-10 00:00N 49°50' W 124°32'2 3.7
2018-Jun-09 23:30N 49°50' W 124°35'713.4
2018-Jun-09 23:00N 49°47' W 124°44'714.2
2018-Jun-09 22:30N 49°45' W 124°54'1 1.2
2018-Jun-09 22:00N 49°44' W 124°55'0 0.0
2018-Jun-09 21:30N 49°44' W 124°55'0 0.0
2018-Jun-09 20:56N 49°44' W 124°55'0 0.0
2018-Jun-09 20:08N 49°44' W 124°55'0 0.7
2018-Jun-09 20:00N 49°44' W 124°55'714.0
2018-Jun-09 19:30N 49°47' W 124°45'815.1
2018-Jun-09 19:00N 49°50' W 124°34'1 2.9
2018-Jun-09 18:30N 49°50' W 124°32'2 4.2
2018-Jun-09 18:00N 49°49' W 124°35'713.1
2018-Jun-09 17:30N 49°47' W 124°44'713.3
2018-Jun-09 17:00N 49°45' W 124°54'1 1.9
2018-Jun-09 16:31N 49°44' W 124°55'3 6.0
2018-Jun-09 16:00N 49°46' W 124°51'1313.2
2018-Jun-09 15:00N 49°50' W 124°32'0 0.1
2018-Jun-09 14:30N 49°50' W 124°32'612.3
2018-Jun-09 14:00N 49°48' W 124°41'613.1
2018-Jun-09 13:30N 49°46' W 124°50'4 7.2
2018-Jun-09 13:01N 49°44' W 124°55'0 0.0
2018-Jun-09 12:31N 49°44' W 124°55'0 0.0
2018-Jun-09 12:01N 49°44' W 124°55'0 0.0
2018-Jun-09 11:25N 49°44' W 124°55'0 0.0
2018-Jun-09 10:49N 49°44' W 124°55'0 0.0
2018-Jun-09 10:28N 49°44' W 124°55'0 0.0
2018-Jun-09 10:01N 49°44' W 124°55'0 0.0
2018-Jun-09 09:25N 49°44' W 124°55'0 0.0
2018-Jun-09 08:55N 49°44' W 124°55'0 0.0
2018-Jun-09 08:28N 49°44' W 124°55'0 0.0
2018-Jun-09 07:58N 49°44' W 124°55'0 0.0
2018-Jun-09 07:31N 49°44' W 124°55'0 0.0
2018-Jun-09 06:55N 49°44' W 124°55'0 0.0
2018-Jun-09 06:31N 49°44' W 124°55'0 0.0
2018-Jun-09 05:58N 49°44' W 124°55'0 0.0
2018-Jun-09 05:25N 49°44' W 124°55'0 0.0
2018-Jun-09 05:00N 49°44' W 124°55'511.0
2018-Jun-09 04:30N 49°46' W 124°47'714.3
2018-Jun-09 04:00N 49°49' W 124°37'4 7.1
2018-Jun-09 03:31N 49°50' W 124°32'5 9.9
2018-Jun-09 03:00N 49°48' W 124°39'713.8
2018-Jun-09 02:30N 49°46' W 124°49'4 8.7
2018-Jun-09 02:00N 49°44' W 124°55'0 0.3
2018-Jun-09 01:30N 49°44' W 124°55'714.9
2018-Jun-09 01:00N 49°47' W 124°44'816.2
2018-Jun-09 00:30N 49°50' W 124°33'1 1.0
2018-Jun-09 00:00N 49°50' W 124°32'4 7.5
2018-Jun-08 23:30N 49°49' W 124°37'713.6
2018-Jun-08 23:00N 49°46' W 124°47'611.3
2018-Jun-08 22:30N 49°44' W 124°55'0 0.0
2018-Jun-08 22:00N 49°44' W 124°55'0 0.0
2018-Jun-08 21:30N 49°44' W 124°55'  
Track history (hours):
 
Tides and Currents Weather Stations Pressure Air Temp Water Temp Dewpoint Dewpoint Depression Visibility Wind Speed Wind Dir Waves Ship Positions

Salish Orca

Last reported at 2018-Jun-18 21:00 UTC. Time now 2018-Jun-18 21:17 UTC.
Position N 49°44' W 124°55'.

Length 107 m; draft 4.6 m.

Type: Passenger vessel. MMSI: 316030627.

Date/timePositionNaut miles runAvg speedWind from/ knotsBaromVisibWave heightAir tempDewpointWater temp
2018-Jun-18 21:00N 49°44' W 124°55'0 0.0
2018-Jun-18 20:30N 49°44' W 124°55'1 1.6
2018-Jun-18 20:00N 49°45' W 124°54'815.9
2018-Jun-18 19:30N 49°48' W 124°43'714.9
2018-Jun-18 19:00N 49°50' W 124°32'0 0.0
2018-Jun-18 18:31N 49°50' W 124°32'4 7.1
2018-Jun-18 18:00N 49°49' W 124°37'816.6
2018-Jun-18 17:30N 49°46' W 124°49'4 8.7
2018-Jun-18 17:00N 49°44' W 124°55'0 0.0
2018-Jun-18 16:30N 49°44' W 124°55'4 7.4
2018-Jun-18 16:00N 49°46' W 124°50'713.9
2018-Jun-18 15:30N 49°48' W 124°40'611.1
2018-Jun-18 15:00N 49°50' W 124°32'0 0.0
2018-Jun-18 14:30N 49°50' W 124°32'714.0
2018-Jun-18 14:00N 49°48' W 124°42'815.7
2018-Jun-18 13:30N 49°45' W 124°53'1 2.8
2018-Jun-18 13:00N 49°44' W 124°55'0 0.0
2018-Jun-18 12:29N 49°44' W 124°55'0 0.0
2018-Jun-18 11:53N 49°44' W 124°55'0 0.0
2018-Jun-18 11:23N 49°44' W 124°55'0 0.0
2018-Jun-18 10:53N 49°44' W 124°55'0 0.0
2018-Jun-18 10:29N 49°44' W 124°55'0 0.0
2018-Jun-18 09:59N 49°44' W 124°55'0 0.0
2018-Jun-18 09:29N 49°44' W 124°55'0 0.0
2018-Jun-18 08:59N 49°44' W 124°55'0 0.0
2018-Jun-18 08:29N 49°44' W 124°55'0 0.0
2018-Jun-18 07:59N 49°44' W 124°55'0 0.0
2018-Jun-18 07:29N 49°44' W 124°55'0 0.0
2018-Jun-18 06:59N 49°44' W 124°55'0 0.0
2018-Jun-18 06:29N 49°44' W 124°55'0 0.0
2018-Jun-18 05:59N 49°44' W 124°55'0 0.0
2018-Jun-18 05:29N 49°44' W 124°55'1 1.5
2018-Jun-18 05:00N 49°45' W 124°54'714.5
2018-Jun-18 04:30N 49°47' W 124°44'714.3
2018-Jun-18 04:00N 49°50' W 124°33'1 2.2
2018-Jun-18 03:30N 49°50' W 124°32'510.5
2018-Jun-18 03:01N 49°48' W 124°39'714.7
2018-Jun-18 02:30N 49°46' W 124°50'4 7.1
2018-Jun-18 02:00N 49°44' W 124°55'1 2.2
2018-Jun-18 01:30N 49°45' W 124°54'714.5
2018-Jun-18 01:00N 49°47' W 124°43'714.1
2018-Jun-18 00:30N 49°50' W 124°33'1 1.6
2018-Jun-18 00:00N 49°50' W 124°32'3 5.3
2018-Jun-17 23:31N 49°49' W 124°36'714.7
2018-Jun-17 23:00N 49°47' W 124°46'611.6
2018-Jun-17 22:29N 49°44' W 124°55'0 0.0
2018-Jun-17 21:59N 49°44' W 124°55'0 0.0
2018-Jun-17 21:29N 49°44' W 124°55'0 0.0
2018-Jun-17 20:56N 49°44' W 124°55'0 0.0
2018-Jun-17 20:29N 49°44' W 124°55'0 0.5
2018-Jun-17 20:00N 49°45' W 124°55'815.3
2018-Jun-17 19:30N 49°48' W 124°44'815.3
2018-Jun-17 19:00N 49°50' W 124°33'1 1.5
2018-Jun-17 18:30N 49°50' W 124°32'2 4.6
2018-Jun-17 18:00N 49°49' W 124°35'612.6
2018-Jun-17 17:30N 49°47' W 124°44'712.9
2018-Jun-17 17:00N 49°45' W 124°54'1 2.3
2018-Jun-17 16:30N 49°44' W 124°55'510.1
2018-Jun-17 16:00N 49°46' W 124°48'612.7
2018-Jun-17 15:31N 49°48' W 124°39'5 9.6
2018-Jun-17 15:00N 49°50' W 124°32'0 0.0
2018-Jun-17 14:30N 49°50' W 124°32'611.8
2018-Jun-17 14:00N 49°48' W 124°40'713.8
2018-Jun-17 13:30N 49°46' W 124°50'3 7.1
2018-Jun-17 13:00N 49°44' W 124°55'0 0.0
2018-Jun-17 12:27N 49°44' W 124°55'0 0.0
2018-Jun-17 12:00N 49°44' W 124°55'0 0.0
2018-Jun-17 11:27N 49°44' W 124°55'0 0.0
2018-Jun-17 10:57N 49°44' W 124°55'0 0.0
2018-Jun-17 10:27N 49°44' W 124°55'0 0.0
2018-Jun-17 10:00N 49°44' W 124°55'0 0.0
2018-Jun-17 09:27N 49°44' W 124°55'0 0.0
2018-Jun-17 09:00N 49°44' W 124°55'0 0.0
2018-Jun-17 08:30N 49°44' W 124°55'0 0.0
2018-Jun-17 07:57N 49°44' W 124°55'0 0.0
2018-Jun-17 07:30N 49°44' W 124°55'0 0.0
2018-Jun-17 07:00N 49°44' W 124°55'0 0.0
2018-Jun-17 06:27N 49°44' W 124°55'0 0.0
2018-Jun-17 06:00N 49°44' W 124°55'0 0.0
2018-Jun-17 05:30N 49°44' W 124°55'0 0.1
2018-Jun-17 05:00N 49°44' W 124°55'712.9
2018-Jun-17 04:30N 49°47' W 124°46'713.5
2018-Jun-17 04:00N 49°49' W 124°36'3 6.0
2018-Jun-17 03:30N 49°50' W 124°32'5 9.9
2018-Jun-17 03:00N 49°48' W 124°39'714.8
2018-Jun-17 02:30N 49°46' W 124°50'4 7.7
2018-Jun-17 02:00N 49°44' W 124°55'0 0.0
2018-Jun-17 01:30N 49°44' W 124°55'612.5
2018-Jun-17 01:01N 49°46' W 124°46'713.8
2018-Jun-17 00:30N 49°49' W 124°36'3 6.0
2018-Jun-17 00:00N 49°50' W 124°32'3 5.5
2018-Jun-16 23:30N 49°49' W 124°36'713.5
2018-Jun-16 23:00N 49°46' W 124°45'713.4
2018-Jun-16 22:30N 49°44' W 124°55'0 0.2
2018-Jun-16 22:00N 49°44' W 124°55'0 0.0
2018-Jun-16 21:30N 49°44' W 124°55'0 0.0
2018-Jun-16 21:00N 49°44' W 124°55'0 0.0
2018-Jun-16 20:30N 49°44' W 124°55'2 3.8
2018-Jun-16 20:00N 49°45' W 124°53'714.6
2018-Jun-16 19:30N 49°48' W 124°42'713.8
2018-Jun-16 19:00N 49°50' W 124°32'0 0.2
2018-Jun-16 18:30N 49°50' W 124°32'4 7.5
2018-Jun-16 18:00N 49°49' W 124°37'714.3
2018-Jun-16 17:31N 49°46' W 124°48'510.3
2018-Jun-16 17:00N 49°44' W 124°55'0 0.0
2018-Jun-16 16:30N 49°44' W 124°55'4 8.4
2018-Jun-16 16:00N 49°46' W 124°49'713.4
2018-Jun-16 15:30N 49°48' W 124°40'510.5
2018-Jun-16 15:00N 49°50' W 124°32'0 0.0
2018-Jun-16 14:30N 49°50' W 124°32'611.2
2018-Jun-16 14:00N 49°48' W 124°40'714.6
2018-Jun-16 13:30N 49°46' W 124°51'3 6.8
2018-Jun-16 13:01N 49°44' W 124°55'0 0.0
2018-Jun-16 12:28N 49°44' W 124°55'0 0.0
2018-Jun-16 11:58N 49°44' W 124°55'0 0.0
2018-Jun-16 11:25N 49°44' W 124°55'0 0.0
2018-Jun-16 10:55N 49°44' W 124°55'0 0.0
2018-Jun-16 10:25N 49°44' W 124°55'0 0.0
2018-Jun-16 09:49N 49°44' W 124°55'0 0.0
2018-Jun-16 09:25N 49°44' W 124°55'0 0.0
2018-Jun-16 08:55N 49°44' W 124°55'0 0.0
2018-Jun-16 08:25N 49°44' W 124°55'0 0.0
2018-Jun-16 07:49N 49°44' W 124°55'0 0.0
2018-Jun-16 07:25N 49°44' W 124°55'0 0.0
2018-Jun-16 06:55N 49°44' W 124°55'0 0.0
2018-Jun-16 06:25N 49°44' W 124°55'0 0.0
2018-Jun-16 05:57N 49°44' W 124°55'4 9.1
2018-Jun-16 05:30N 49°46' W 124°50'815.8
2018-Jun-16 05:00N 49°49' W 124°38'4 8.6
2018-Jun-16 04:30N 49°50' W 124°32'4 8.4
2018-Jun-16 04:00N 49°49' W 124°38'714.5
2018-Jun-16 03:30N 49°46' W 124°48'5 9.2
2018-Jun-16 02:59N 49°44' W 124°55'0 0.3
2018-Jun-16 02:30N 49°44' W 124°55'2 4.0
2018-Jun-16 02:00N 49°44' W 124°52'1 2.8
2018-Jun-16 01:30N 49°45' W 124°54'612.8
2018-Jun-16 01:00N 49°47' W 124°44'714.5
2018-Jun-16 00:30N 49°49' W 124°34'2 3.1
2018-Jun-16 00:00N 49°50' W 124°32'3 5.1
2018-Jun-15 23:31N 49°49' W 124°35'714.2
2018-Jun-15 23:00N 49°47' W 124°46'713.1
2018-Jun-15 22:30N 49°44' W 124°55'0 0.0
2018-Jun-15 21:58N 49°44' W 124°55'0 0.0
2018-Jun-15 21:28N 49°44' W 124°55'0 0.0
2018-Jun-15 20:58N 49°44' W 124°55'0 0.0
2018-Jun-15 20:28N 49°44' W 124°55'2 3.8
2018-Jun-15 20:00N 49°45' W 124°53'816.7
2018-Jun-15 19:30N 49°48' W 124°41'612.3
2018-Jun-15 19:00N 49°50' W 124°32'0 0.0
2018-Jun-15 18:30N 49°50' W 124°32'2 4.2
2018-Jun-15 18:00N 49°49' W 124°35'713.7
2018-Jun-15 17:30N 49°47' W 124°45'713.5
2018-Jun-15 17:00N 49°45' W 124°55'1 1.1
2018-Jun-15 16:30N 49°44' W 124°55'2 3.5
2018-Jun-15 16:00N 49°45' W 124°53'816.4
2018-Jun-15 15:30N 49°48' W 124°41'612.5
2018-Jun-15 15:00N 49°50' W 124°32'0 0.0
2018-Jun-15 14:30N 49°50' W 124°32'612.1
2018-Jun-15 14:00N 49°48' W 124°41'713.5
2018-Jun-15 13:30N 49°45' W 124°51'3 6.7
2018-Jun-15 13:01N 49°44' W 124°55'0 0.0
2018-Jun-15 12:26N 49°44' W 124°55'0 0.0
2018-Jun-15 11:59N 49°44' W 124°55'0 0.0
2018-Jun-15 11:26N 49°44' W 124°55'0 0.0
2018-Jun-15 10:59N 49°44' W 124°55'0 0.0
2018-Jun-15 10:29N 49°44' W 124°55'0 0.0
2018-Jun-15 09:59N 49°44' W 124°55'0 0.0
2018-Jun-15 09:29N 49°44' W 124°55'0 0.0
2018-Jun-15 08:56N 49°44' W 124°55'0 0.0
2018-Jun-15 08:20N 49°44' W 124°55'0 0.0
2018-Jun-15 07:59N 49°44' W 124°55'0 0.0
2018-Jun-15 07:26N 49°44' W 124°55'0 0.0
2018-Jun-15 06:56N 49°44' W 124°55'0 0.0
2018-Jun-15 06:20N 49°44' W 124°55'0 0.0
2018-Jun-15 05:56N 49°44' W 124°55'0 0.0
2018-Jun-15 05:26N 49°44' W 124°55'0 0.0
2018-Jun-15 04:59N 49°44' W 124°55'511.2
2018-Jun-15 04:30N 49°47' W 124°48'714.7
2018-Jun-15 04:00N 49°49' W 124°37'4 7.2
2018-Jun-15 03:31N 49°50' W 124°32'5 9.9
2018-Jun-15 03:00N 49°49' W 124°39'713.5
2018-Jun-15 02:31N 49°46' W 124°49'5 9.0
2018-Jun-15 02:01N 49°44' W 124°55'0 0.6
2018-Jun-15 01:31N 49°45' W 124°55'714.5
2018-Jun-15 01:00N 49°47' W 124°45'715.0
2018-Jun-15 00:30N 49°50' W 124°34'1 2.4
2018-Jun-15 00:01N 49°50' W 124°32'5 9.1
2018-Jun-14 23:30N 49°48' W 124°39'714.3
2018-Jun-14 23:00N 49°45' W 124°49'5 9.1
2018-Jun-14 22:30N 49°44' W 124°55'0 0.0
2018-Jun-14 22:00N 49°44' W 124°55'0 0.0
2018-Jun-14 21:26N 49°44' W 124°55'0 0.0
2018-Jun-14 20:59N 49°44' W 124°55'0 0.0
2018-Jun-14 20:29N 49°44' W 124°55'1 2.8
2018-Jun-14 19:59N 49°45' W 124°53'714.3
2018-Jun-14 19:30N 49°47' W 124°43'714.0
2018-Jun-14 19:01N 49°49' W 124°33'1 2.2
2018-Jun-14 18:30N 49°50' W 124°32'3 5.4
2018-Jun-14 18:00N 49°49' W 124°36'714.5
2018-Jun-14 17:30N 49°47' W 124°46'612.6
2018-Jun-14 17:00N 49°44' W 124°55'0 0.0
2018-Jun-14 16:30N 49°44' W 124°55'5 9.1
2018-Jun-14 16:00N 49°46' W 124°49'816.2
2018-Jun-14 15:30N 49°49' W 124°37'3 7.0
2018-Jun-14 15:00N 49°50' W 124°32'1 2.4
2018-Jun-14 14:30N 49°50' W 124°34'612.9
2018-Jun-14 14:01N 49°47' W 124°43'612.9
2018-Jun-14 13:31N 49°45' W 124°52'2 4.2
2018-Jun-14 12:59N 49°44' W 124°55'0 0.0
2018-Jun-14 12:26N 49°44' W 124°55'0 0.0
2018-Jun-14 11:59N 49°44' W 124°55'0 0.0
2018-Jun-14 11:26N 49°44' W 124°55'0 0.0
2018-Jun-14 10:59N 49°44' W 124°55'0 0.0
2018-Jun-14 10:29N 49°44' W 124°55'0 0.0
2018-Jun-14 09:59N 49°44' W 124°55'0 0.0
2018-Jun-14 09:29N 49°44' W 124°55'0 0.0
2018-Jun-14 08:59N 49°44' W 124°55'0 0.0
2018-Jun-14 08:29N 49°44' W 124°55'0 0.0
2018-Jun-14 07:59N 49°44' W 124°55'0 0.0
2018-Jun-14 07:23N 49°44' W 124°55'0 0.0
2018-Jun-14 06:59N 49°44' W 124°55'0 0.0
2018-Jun-14 06:29N 49°44' W 124°55'0 0.0
2018-Jun-14 05:59N 49°44' W 124°55'0 0.0
2018-Jun-14 05:29N 49°44' W 124°55'0 0.0
2018-Jun-14 05:00N 49°44' W 124°55'510.4
2018-Jun-14 04:31N 49°46' W 124°48'714.7
2018-Jun-14 04:00N 49°49' W 124°37'4 7.3
2018-Jun-14 03:30N 49°50' W 124°32'4 9.0
2018-Jun-14 03:00N 49°49' W 124°38'713.7
2018-Jun-14 02:30N 49°46' W 124°48'5 9.7
2018-Jun-14 02:00N 49°44' W 124°55'0 0.0
2018-Jun-14 01:30N 49°44' W 124°55'612.0
2018-Jun-14 01:01N 49°47' W 124°47'714.6
2018-Jun-14 00:30N 49°49' W 124°36'3 5.9
2018-Jun-14 00:00N 49°50' W 124°32'1 2.7
2018-Jun-13 23:30N 49°49' W 124°34'713.9
2018-Jun-13 23:00N 49°47' W 124°44'714.0
2018-Jun-13 22:31N 49°45' W 124°54'1 1.9
2018-Jun-13 22:01N 49°44' W 124°55'0 0.0
2018-Jun-13 21:28N 49°44' W 124°55'0 0.0
2018-Jun-13 20:58N 49°44' W 124°55'0 0.0
2018-Jun-13 20:28N 49°44' W 124°55'2 3.8
2018-Jun-13 20:00N 49°45' W 124°53'713.8
2018-Jun-13 19:30N 49°47' W 124°43'713.4
2018-Jun-13 19:00N 49°50' W 124°33'1 1.8
2018-Jun-13 18:30N 49°50' W 124°32'2 4.5
2018-Jun-13 18:00N 49°49' W 124°35'613.3
2018-Jun-13 17:30N 49°47' W 124°45'713.7
2018-Jun-13 17:00N 49°45' W 124°55'1 1.1
2018-Jun-13 16:30N 49°44' W 124°55'4 7.9
2018-Jun-13 16:00N 49°46' W 124°50'713.7
2018-Jun-13 15:30N 49°48' W 124°40'510.9
2018-Jun-13 15:01N 49°50' W 124°32'0 0.2
2018-Jun-13 14:30N 49°50' W 124°32'712.8
2018-Jun-13 14:00N 49°48' W 124°41'612.6
2018-Jun-13 13:29N 49°46' W 124°51'3 6.4
2018-Jun-13 13:00N 49°44' W 124°55'0 0.0
2018-Jun-13 12:30N 49°44' W 124°55'0 0.0
2018-Jun-13 12:00N 49°44' W 124°55'0 0.0
2018-Jun-13 11:27N 49°44' W 124°55'0 0.0
2018-Jun-13 11:00N 49°44' W 124°55'0 0.0
2018-Jun-13 10:30N 49°44' W 124°55'0 0.0
2018-Jun-13 10:00N 49°44' W 124°55'0 0.0
2018-Jun-13 09:30N 49°44' W 124°55'0 0.0
2018-Jun-13 09:00N 49°44' W 124°55'0 0.0
2018-Jun-13 08:27N 49°44' W 124°55'0 0.0
2018-Jun-13 07:57N 49°44' W 124°55'0 0.0
2018-Jun-13 07:21N 49°44' W 124°55'0 0.0
2018-Jun-13 06:57N 49°44' W 124°55'0 0.0
2018-Jun-13 06:21N 49°44' W 124°55'0 0.0
2018-Jun-13 05:57N 49°44' W 124°55'0 0.0
2018-Jun-13 05:27N 49°44' W 124°55'0 0.0
2018-Jun-13 04:59N 49°44' W 124°55'511.0
2018-Jun-13 04:30N 49°46' W 124°48'714.5
2018-Jun-13 04:00N 49°49' W 124°37'4 7.2
2018-Jun-13 03:30N 49°50' W 124°32'5 9.6
2018-Jun-13 03:00N 49°48' W 124°39'713.8
2018-Jun-13 02:30N 49°46' W 124°49'5 9.0
2018-Jun-13 02:00N 49°44' W 124°55'0 0.2
2018-Jun-13 01:30N 49°44' W 124°55'713.8
2018-Jun-13 01:00N 49°47' W 124°45'714.2
2018-Jun-13 00:30N 49°49' W 124°35'2 4.2
2018-Jun-13 00:00N 49°50' W 124°32'2 4.8
2018-Jun-12 23:31N 49°49' W 124°35'714.3
2018-Jun-12 23:00N 49°47' W 124°46'713.2
2018-Jun-12 22:31N 49°44' W 124°55'0 0.1
2018-Jun-12 21:58N 49°44' W 124°55'0 0.0
2018-Jun-12 21:30N 49°44' W 124°55'0 0.0
2018-Jun-12 21:00N 49°44' W 124°55'0 0.0
2018-Jun-12 20:30N 49°44' W 124°55'0 0.0
2018-Jun-12 20:00N 49°44' W 124°55'612.4
2018-Jun-12 19:31N 49°46' W 124°47'815.6
2018-Jun-12 19:00N 49°49' W 124°35'2 4.6
2018-Jun-12 18:30N 49°50' W 124°32'2 3.8
2018-Jun-12 18:00N 49°49' W 124°35'713.6
2018-Jun-12 17:30N 49°47' W 124°44'713.6
2018-Jun-12 17:00N 49°45' W 124°54'1 1.4
2018-Jun-12 16:30N 49°44' W 124°55'4 7.5
2018-Jun-12 16:01N 49°46' W 124°50'714.0
2018-Jun-12 15:30N 49°48' W 124°40'510.9
2018-Jun-12 15:00N 49°50' W 124°32'0 0.0
2018-Jun-12 14:30N 49°50' W 124°32'611.5
2018-Jun-12 14:00N 49°48' W 124°40'713.6
2018-Jun-12 13:30N 49°46' W 124°50'4 6.8
2018-Jun-12 12:58N 49°44' W 124°55'0 0.0
2018-Jun-12 12:28N 49°44' W 124°55'0 0.0
2018-Jun-12 11:58N 49°44' W 124°55'0 0.0
2018-Jun-12 11:28N 49°44' W 124°55'0 0.0
2018-Jun-12 10:58N 49°44' W 124°55'0 0.0
2018-Jun-12 10:28N 49°44' W 124°55'0 0.0
2018-Jun-12 09:55N 49°44' W 124°55'0 0.0
2018-Jun-12 09:28N 49°44' W 124°55'0 0.0
2018-Jun-12 08:58N 49°44' W 124°55'0 0.0
2018-Jun-12 08:28N 49°44' W 124°55'0 0.0
2018-Jun-12 07:58N 49°44' W 124°55'0 0.0
2018-Jun-12 07:28N 49°44' W 124°55'0 0.0
2018-Jun-12 06:58N 49°44' W 124°55'0 0.0
2018-Jun-12 06:28N 49°44' W 124°55'0 0.0
2018-Jun-12 05:58N 49°44' W 124°55'0 0.0
2018-Jun-12 05:28N 49°44' W 124°55'0 0.0
2018-Jun-12 05:00N 49°44' W 124°55'611.3
2018-Jun-12 04:31N 49°46' W 124°47'714.1
2018-Jun-12 04:00N 49°49' W 124°37'4 7.0
2018-Jun-12 03:30N 49°50' W 124°32'4 8.2
2018-Jun-12 03:00N 49°49' W 124°38'714.5
2018-Jun-12 02:30N 49°46' W 124°48'5 9.7
2018-Jun-12 02:01N 49°44' W 124°55'0 0.0
2018-Jun-12 01:31N 49°44' W 124°55'612.6
2018-Jun-12 01:00N 49°47' W 124°46'714.3
2018-Jun-12 00:30N 49°49' W 124°36'3 5.4
2018-Jun-12 00:01N 49°50' W 124°32'3 5.6
2018-Jun-11 23:30N 49°49' W 124°36'714.4
2018-Jun-11 23:00N 49°46' W 124°46'612.4
2018-Jun-11 22:31N 49°44' W 124°55'0 0.0
2018-Jun-11 22:01N 49°44' W 124°55'0 0.0
2018-Jun-11 21:30N 49°44' W 124°55'0 0.0
2018-Jun-11 21:00N 49°44' W 124°55'0 0.0
2018-Jun-11 20:27N 49°44' W 124°55'0 0.3
2018-Jun-11 20:00N 49°44' W 124°55'714.2
2018-Jun-11 19:30N 49°47' W 124°45'714.1
2018-Jun-11 19:01N 49°49' W 124°35'2 3.8
2018-Jun-11 18:31N 49°50' W 124°32'2 4.9
2018-Jun-11 18:01N 49°49' W 124°35'714.4
2018-Jun-11 17:30N 49°47' W 124°46'713.0
2018-Jun-11 17:00N 49°44' W 124°55'0 0.0
2018-Jun-11 16:30N 49°44' W 124°55'4 7.3
2018-Jun-11 16:00N 49°46' W 124°50'714.0
2018-Jun-11 15:31N 49°48' W 124°40'611.1
2018-Jun-11 15:01N 49°50' W 124°32'0 0.0
2018-Jun-11 14:30N 49°50' W 124°32'611.8
2018-Jun-11 14:00N 49°48' W 124°40'713.9
2018-Jun-11 13:30N 49°46' W 124°50'3 6.4
2018-Jun-11 12:59N 49°44' W 124°55'0 0.0
2018-Jun-11 12:29N 49°44' W 124°55'0 0.0
2018-Jun-11 11:59N 49°44' W 124°55'0 0.0
2018-Jun-11 11:29N 49°44' W 124°55'0 0.0
2018-Jun-11 10:59N 49°44' W 124°55'0 0.0
2018-Jun-11 10:29N 49°44' W 124°55'0 0.0
2018-Jun-11 09:56N 49°44' W 124°55'0 0.0
2018-Jun-11 09:20N 49°44' W 124°55'0 0.0
2018-Jun-11 08:59N 49°44' W 124°55'0 0.0
2018-Jun-11 08:29N 49°44' W 124°55'0 0.0
2018-Jun-11 07:59N 49°44' W 124°55'0 0.0
2018-Jun-11 07:29N 49°44' W 124°55'0 0.0
2018-Jun-11 06:59N 49°44' W 124°55'0 0.0
2018-Jun-11 06:26N 49°44' W 124°55'0 0.0
2018-Jun-11 05:59N 49°44' W 124°55'0 0.0
2018-Jun-11 05:29N 49°44' W 124°55'0 0.0
2018-Jun-11 05:01N 49°44' W 124°55'611.5
2018-Jun-11 04:30N 49°46' W 124°47'714.4
2018-Jun-11 04:00N 49°49' W 124°36'3 6.4
2018-Jun-11 03:30N 49°50' W 124°32'5 9.3
2018-Jun-11 03:00N 49°48' W 124°39'713.8
2018-Jun-11 02:30N 49°46' W 124°49'5 9.3
2018-Jun-11 02:00N 49°44' W 124°55'0 0.1
2018-Jun-11 01:30N 49°44' W 124°55'612.1
2018-Jun-11 01:01N 49°47' W 124°47'713.9
2018-Jun-11 00:30N 49°49' W 124°37'3 6.6
2018-Jun-11 00:00N 49°50' W 124°32'1 2.3
2018-Jun-10 23:30N 49°50' W 124°34'714.6
2018-Jun-10 23:00N 49°47' W 124°44'714.7
2018-Jun-10 22:30N 49°45' W 124°55'0 0.9
2018-Jun-10 22:00N 49°44' W 124°55'0 0.0
2018-Jun-10 21:30N 49°44' W 124°55'0 0.0
2018-Jun-10 20:55N 49°44' W 124°55'0 0.0
2018-Jun-10 20:25N 49°44' W 124°55'1 2.4
2018-Jun-10 20:00N 49°45' W 124°54'713.4
2018-Jun-10 19:30N 49°47' W 124°44'713.7
2018-Jun-10 18:59N 49°50' W 124°34'1 2.9
2018-Jun-10 18:30N 49°50' W 124°32'2 3.6
2018-Jun-10 18:00N 49°49' W 124°34'713.4
2018-Jun-10 17:30N 49°47' W 124°44'713.7
2018-Jun-10 16:59N 49°45' W 124°54'1 1.4
2018-Jun-10 16:30N 49°44' W 124°55'3 6.5
2018-Jun-10 16:00N 49°46' W 124°51'714.0
2018-Jun-10 15:30N 49°48' W 124°40'611.9
2018-Jun-10 15:00N 49°50' W 124°32'6 5.8
2018-Jun-10 14:00N 49°48' W 124°40'713.5
2018-Jun-10 13:30N 49°46' W 124°50'4 7.3
2018-Jun-10 13:00N 49°44' W 124°55'0 0.0
2018-Jun-10 12:30N 49°44' W 124°55'0 0.0
2018-Jun-10 11:57N 49°44' W 124°55'0 0.0
2018-Jun-10 11:30N 49°44' W 124°55'0 0.0
2018-Jun-10 10:57N 49°44' W 124°55'0 0.0
2018-Jun-10 10:27N 49°44' W 124°55'0 0.0
2018-Jun-10 09:54N 49°44' W 124°55'0 0.0
2018-Jun-10 09:30N 49°44' W 124°55'0 0.0
2018-Jun-10 09:00N 49°44' W 124°55'0 0.0
2018-Jun-10 08:30N 49°44' W 124°55'0 0.0
2018-Jun-10 08:00N 49°44' W 124°55'0 0.0
2018-Jun-10 07:30N 49°44' W 124°55'0 0.0
2018-Jun-10 07:00N 49°44' W 124°55'0 0.0
2018-Jun-10 06:30N 49°44' W 124°55'0 0.0
2018-Jun-10 06:00N 49°44' W 124°55'0 0.0
2018-Jun-10 05:30N 49°44' W 124°55'0 0.0
2018-Jun-10 05:00N 49°44' W 124°55'611.4
2018-Jun-10 04:30N 49°46' W 124°47'714.0
2018-Jun-10 04:00N 49°49' W 124°37'3 7.0
2018-Jun-10 03:30N 49°50' W 124°32'5 9.1
2018-Jun-10 03:00N 49°48' W 124°38'713.6
2018-Jun-10 02:30N 49°46' W 124°48'5 9.8
2018-Jun-10 02:01N 49°44' W 124°55'0 0.1
2018-Jun-10 01:31N 49°44' W 124°55'611.8
2018-Jun-10 01:00N 49°47' W 124°47'714.6
2018-Jun-10 00:30N 49°49' W 124°36'3 5.9
2018-Jun-10 00:00N 49°50' W 124°32'2 3.7
2018-Jun-09 23:30N 49°50' W 124°35'713.4
2018-Jun-09 23:00N 49°47' W 124°44'714.2
2018-Jun-09 22:30N 49°45' W 124°54'1 1.2
2018-Jun-09 22:00N 49°44' W 124°55'0 0.0
2018-Jun-09 21:30N 49°44' W 124°55'0 0.0
2018-Jun-09 20:56N 49°44' W 124°55'0 0.0
2018-Jun-09 20:08N 49°44' W 124°55'0 0.7
2018-Jun-09 20:00N 49°44' W 124°55'714.0
2018-Jun-09 19:30N 49°47' W 124°45'815.1
2018-Jun-09 19:00N 49°50' W 124°34'1 2.9
2018-Jun-09 18:30N 49°50' W 124°32'2 4.2
2018-Jun-09 18:00N 49°49' W 124°35'713.1
2018-Jun-09 17:30N 49°47' W 124°44'713.3
2018-Jun-09 17:00N 49°45' W 124°54'1 1.9
2018-Jun-09 16:31N 49°44' W 124°55'3 6.0
2018-Jun-09 16:00N 49°46' W 124°51'1313.2
2018-Jun-09 15:00N 49°50' W 124°32'0 0.1
2018-Jun-09 14:30N 49°50' W 124°32'612.3
2018-Jun-09 14:00N 49°48' W 124°41'613.1
2018-Jun-09 13:30N 49°46' W 124°50'4 7.2
2018-Jun-09 13:01N 49°44' W 124°55'0 0.0
2018-Jun-09 12:31N 49°44' W 124°55'0 0.0
2018-Jun-09 12:01N 49°44' W 124°55'0 0.0
2018-Jun-09 11:25N 49°44' W 124°55'0 0.0
2018-Jun-09 10:49N 49°44' W 124°55'0 0.0
2018-Jun-09 10:28N 49°44' W 124°55'0 0.0
2018-Jun-09 10:01N 49°44' W 124°55'0 0.0
2018-Jun-09 09:25N 49°44' W 124°55'0 0.0
2018-Jun-09 08:55N 49°44' W 124°55'0 0.0
2018-Jun-09 08:28N 49°44' W 124°55'0 0.0
2018-Jun-09 07:58N 49°44' W 124°55'0 0.0
2018-Jun-09 07:31N 49°44' W 124°55'0 0.0
2018-Jun-09 06:55N 49°44' W 124°55'0 0.0
2018-Jun-09 06:31N 49°44' W 124°55'0 0.0
2018-Jun-09 05:58N 49°44' W 124°55'0 0.0
2018-Jun-09 05:25N 49°44' W 124°55'0 0.0
2018-Jun-09 05:00N 49°44' W 124°55'511.0
2018-Jun-09 04:30N 49°46' W 124°47'714.3
2018-Jun-09 04:00N 49°49' W 124°37'4 7.1
2018-Jun-09 03:31N 49°50' W 124°32'5 9.9
2018-Jun-09 03:00N 49°48' W 124°39'713.8
2018-Jun-09 02:30N 49°46' W 124°49'4 8.7
2018-Jun-09 02:00N 49°44' W 124°55'0 0.3
2018-Jun-09 01:30N 49°44' W 124°55'714.9
2018-Jun-09 01:00N 49°47' W 124°44'816.2
2018-Jun-09 00:30N 49°50' W 124°33'1 1.0
2018-Jun-09 00:00N 49°50' W 124°32'4 7.5
2018-Jun-08 23:30N 49°49' W 124°37'713.6
2018-Jun-08 23:00N 49°46' W 124°47'611.3
2018-Jun-08 22:30N 49°44' W 124°55'0 0.0
2018-Jun-08 22:00N 49°44' W 124°55'0 0.0
2018-Jun-08 21:30N 49°44' W 124°55'  

Dump ship's entire track history